sensor_id;sensor_type;location;lat;lon;timestamp;pressure;altitude;pressure_sealevel;temperature;humidity
45541;BME280;31265;49.680;8.608;2023-07-31T00:00:48;100425.59;;;17.56;100.00
45541;BME280;31265;49.680;8.608;2023-07-31T00:03:17;100432.91;;;17.61;100.00
45541;BME280;31265;49.680;8.608;2023-07-31T00:05:45;100431.34;;;17.58;100.00
45541;BME280;31265;49.680;8.608;2023-07-31T00:08:14;100422.78;;;17.56;100.00
45541;BME280;31265;49.680;8.608;2023-07-31T00:10:42;100417.19;;;17.56;100.00
45541;BME280;31265;49.680;8.608;2023-07-31T00:13:13;100424.13;;;17.55;100.00
45541;BME280;31265;49.680;8.608;2023-07-31T00:15:42;100421.31;;;17.55;100.00
45541;BME280;31265;49.680;8.608;2023-07-31T00:18:12;100434.03;;;17.56;100.00
45541;BME280;31265;49.680;8.608;2023-07-31T00:20:40;100425.72;;;17.58;100.00
45541;BME280;31265;49.680;8.608;2023-07-31T00:23:09;100427.19;;;17.59;100.00
45541;BME280;31265;49.680;8.608;2023-07-31T00:25:39;100420.22;;;17.60;100.00
45541;BME280;31265;49.680;8.608;2023-07-31T00:28:07;100420.34;;;17.62;100.00
45541;BME280;31265;49.680;8.608;2023-07-31T00:30:36;100406.94;;;17.61;100.00
45541;BME280;31265;49.680;8.608;2023-07-31T00:33:04;100409.13;;;17.62;100.00
45541;BME280;31265;49.680;8.608;2023-07-31T00:35:34;100415.59;;;17.65;100.00
45541;BME280;31265;49.680;8.608;2023-07-31T00:38:03;100419.03;;;17.63;100.00
45541;BME280;31265;49.680;8.608;2023-07-31T00:40:34;100409.38;;;17.67;100.00
45541;BME280;31265;49.680;8.608;2023-07-31T00:43:04;100409.72;;;17.73;100.00
45541;BME280;31265;49.680;8.608;2023-07-31T00:45:34;100410.81;;;17.68;100.00
45541;BME280;31265;49.680;8.608;2023-07-31T00:48:04;100414.84;;;17.65;100.00
45541;BME280;31265;49.680;8.608;2023-07-31T00:50:36;100409.13;;;17.62;100.00
45541;BME280;31265;49.680;8.608;2023-07-31T00:53:04;100400.94;;;17.67;100.00
45541;BME280;31265;49.680;8.608;2023-07-31T00:55:33;100400.81;;;17.65;100.00
45541;BME280;31265;49.680;8.608;2023-07-31T00:58:02;100406.69;;;17.69;100.00
45541;BME280;31265;49.680;8.608;2023-07-31T01:00:30;100394.63;;;17.66;100.00
45541;BME280;31265;49.680;8.608;2023-07-31T01:02:59;100388.88;;;17.64;100.00
45541;BME280;31265;49.680;8.608;2023-07-31T01:05:33;100398.63;;;17.75;100.00
45541;BME280;31265;49.680;8.608;2023-07-31T01:08:15;100389.72;;;17.67;100.00
45541;BME280;31265;49.680;8.608;2023-07-31T01:10:49;100391.56;;;17.74;100.00
45541;BME280;31265;49.680;8.608;2023-07-31T01:13:19;100396.53;;;17.75;100.00
45541;BME280;31265;49.680;8.608;2023-07-31T01:15:48;100392.28;;;17.74;100.00
45541;BME280;31265;49.680;8.608;2023-07-31T01:18:16;100398.63;;;17.75;100.00
45541;BME280;31265;49.680;8.608;2023-07-31T01:20:47;100397.19;;;17.86;100.00
45541;BME280;31265;49.680;8.608;2023-07-31T01:23:35;100392.69;;;17.80;100.00
45541;BME280;31265;49.680;8.608;2023-07-31T01:26:19;100401.31;;;17.84;100.00
45541;BME280;31265;49.680;8.608;2023-07-31T01:28:55;100399.75;;;17.81;100.00
45541;BME280;31265;49.680;8.608;2023-07-31T01:31:25;100400.47;;;17.82;100.00
45541;BME280;31265;49.680;8.608;2023-07-31T01:33:58;100385.97;;;17.86;100.00
45541;BME280;31265;49.680;8.608;2023-07-31T01:36:28;100393.53;;;17.83;100.00
45541;BME280;31265;49.680;8.608;2023-07-31T01:39:02;100389.38;;;17.84;100.00
45541;BME280;31265;49.680;8.608;2023-07-31T01:41:32;100391.19;;;17.91;100.00
45541;BME280;31265;49.680;8.608;2023-07-31T01:44:00;100391.81;;;17.78;100.00
45541;BME280;31265;49.680;8.608;2023-07-31T01:46:28;100387.16;;;17.82;100.00
45541;BME280;31265;49.680;8.608;2023-07-31T01:48:57;100389.38;;;17.84;100.00
45541;BME280;31265;49.680;8.608;2023-07-31T01:51:25;100380.81;;;17.70;100.00
45541;BME280;31265;49.680;8.608;2023-07-31T01:53:54;100385.09;;;17.71;100.00
45541;BME280;31265;49.680;8.608;2023-07-31T01:56:24;100381.19;;;17.65;100.00
45541;BME280;31265;49.680;8.608;2023-07-31T01:58:54;100371.06;;;17.59;100.00
45541;BME280;31265;49.680;8.608;2023-07-31T02:01:22;100368.63;;;17.66;100.00
45541;BME280;31265;49.680;8.608;2023-07-31T02:03:51;100370.09;;;17.55;100.00
45541;BME280;31265;49.680;8.608;2023-07-31T02:06:21;100360.84;;;17.52;100.00
45541;BME280;31265;49.680;8.608;2023-07-31T02:08:52;100366.22;;;17.48;100.00
45541;BME280;31265;49.680;8.608;2023-07-31T02:11:20;100359.97;;;17.50;100.00
45541;BME280;31265;49.680;8.608;2023-07-31T02:13:49;100358.66;;;17.39;100.00
45541;BME280;31265;49.680;8.608;2023-07-31T02:16:19;100354.50;;;17.28;100.00
45541;BME280;31265;49.680;8.608;2023-07-31T02:18:48;100348.53;;;17.22;100.00
45541;BME280;31265;49.680;8.608;2023-07-31T02:21:16;100349.41;;;17.25;100.00
45541;BME280;31265;49.680;8.608;2023-07-31T02:23:44;100343.78;;;17.25;100.00
45541;BME280;31265;49.680;8.608;2023-07-31T02:26:13;100343.31;;;17.16;100.00
45541;BME280;31265;49.680;8.608;2023-07-31T02:28:41;100347.22;;;17.11;100.00
45541;BME280;31265;49.680;8.608;2023-07-31T02:31:11;100340.25;;;17.12;100.00
45541;BME280;31265;49.680;8.608;2023-07-31T02:33:42;100335.03;;;17.18;100.00
45541;BME280;31265;49.680;8.608;2023-07-31T02:36:10;100340.13;;;17.10;100.00
45541;BME280;31265;49.680;8.608;2023-07-31T02:38:40;100337.44;;;17.12;100.00
45541;BME280;31265;49.680;8.608;2023-07-31T02:41:09;100326.97;;;17.13;100.00
45541;BME280;31265;49.680;8.608;2023-07-31T02:43:37;100335.75;;;17.19;100.00
45541;BME280;31265;49.680;8.608;2023-07-31T02:46:05;100327.59;;;17.11;100.00
45541;BME280;31265;49.680;8.608;2023-07-31T02:48:34;100332.22;;;17.07;100.00
45541;BME280;31265;49.680;8.608;2023-07-31T02:51:06;100333.06;;;17.09;100.00
45541;BME280;31265;49.680;8.608;2023-07-31T02:53:35;100329.88;;;17.03;100.00
45541;BME280;31265;49.680;8.608;2023-07-31T02:56:03;100326.94;;;17.01;100.00
45541;BME280;31265;49.680;8.608;2023-07-31T02:58:32;100328.16;;;16.98;100.00
45541;BME280;31265;49.680;8.608;2023-07-31T03:01:00;100337.81;;;16.95;100.00
45541;BME280;31265;49.680;8.608;2023-07-31T03:03:29;100332.44;;;16.99;100.00
45541;BME280;31265;49.680;8.608;2023-07-31T03:05:57;100330.38;;;17.11;100.00
45541;BME280;31265;49.680;8.608;2023-07-31T03:08:27;100323.53;;;17.03;100.00
45541;BME280;31265;49.680;8.608;2023-07-31T03:10:56;100324.91;;;17.02;100.00
45541;BME280;31265;49.680;8.608;2023-07-31T03:13:24;100334.03;;;17.02;100.00
45541;BME280;31265;49.680;8.608;2023-07-31T03:15:53;100333.66;;;16.96;100.00
45541;BME280;31265;49.680;8.608;2023-07-31T03:18:22;100337.06;;;16.94;100.00
45541;BME280;31265;49.680;8.608;2023-07-31T03:20:50;100336.25;;;17.04;100.00
45541;BME280;31265;49.680;8.608;2023-07-31T03:23:19;100333.31;;;17.02;100.00
45541;BME280;31265;49.680;8.608;2023-07-31T03:25:58;100345.97;;;17.03;100.00
45541;BME280;31265;49.680;8.608;2023-07-31T03:28:28;100331.22;;;17.02;100.00
45541;BME280;31265;49.680;8.608;2023-07-31T03:30:57;100324.28;;;17.03;100.00
45541;BME280;31265;49.680;8.608;2023-07-31T03:33:25;100317.47;;;17.06;100.00
45541;BME280;31265;49.680;8.608;2023-07-31T03:35:54;100326.47;;;17.16;100.00
45541;BME280;31265;49.680;8.608;2023-07-31T03:38:22;100324.78;;;17.11;100.00
45541;BME280;31265;49.680;8.608;2023-07-31T03:40:53;100331.59;;;17.08;100.00
45541;BME280;31265;49.680;8.608;2023-07-31T03:43:23;100329.88;;;17.03;100.00
45541;BME280;31265;49.680;8.608;2023-07-31T03:45:54;100332.56;;;17.01;100.00
45541;BME280;31265;49.680;8.608;2023-07-31T03:48:24;100323.28;;;16.98;100.00
45541;BME280;31265;49.680;8.608;2023-07-31T03:50:54;100319.75;;;16.98;100.00
45541;BME280;31265;49.680;8.608;2023-07-31T03:53:22;100310.38;;;16.93;100.00
45541;BME280;31265;49.680;8.608;2023-07-31T03:55:53;100316.00;;;17.05;100.00
45541;BME280;31265;49.680;8.608;2023-07-31T03:58:26;100320.88;;;17.05;100.00
45541;BME280;31265;49.680;8.608;2023-07-31T04:00:54;100321.97;;;17.00;100.00
45541;BME280;31265;49.680;8.608;2023-07-31T04:03:23;100322.56;;;16.98;100.00
45541;BME280;31265;49.680;8.608;2023-07-31T04:05:53;100323.78;;;16.95;100.00
45541;BME280;31265;49.680;8.608;2023-07-31T04:08:22;100322.69;;;17.00;100.00
45541;BME280;31265;49.680;8.608;2023-07-31T04:10:50;100325.13;;;16.94;100.00
45541;BME280;31265;49.680;8.608;2023-07-31T04:13:19;100327.69;;;17.02;100.00
45541;BME280;31265;49.680;8.608;2023-07-31T04:15:51;100328.31;;;17.00;100.00
45541;BME280;31265;49.680;8.608;2023-07-31T04:18:20;100335.25;;;16.99;100.00
45541;BME280;31265;49.680;8.608;2023-07-31T04:20:48;100329.66;;;16.99;100.00
45541;BME280;31265;49.680;8.608;2023-07-31T04:23:16;100329.66;;;16.99;100.00
45541;BME280;31265;49.680;8.608;2023-07-31T04:25:44;100326.00;;;16.96;100.00
45541;BME280;31265;49.680;8.608;2023-07-31T04:28:13;100330.47;;;16.90;100.00
45541;BME280;31265;49.680;8.608;2023-07-31T04:30:41;100324.63;;;16.86;100.00
45541;BME280;31265;49.680;8.608;2023-07-31T04:33:14;100325.13;;;16.82;100.00
45541;BME280;31265;49.680;8.608;2023-07-31T04:35:46;100327.19;;;16.82;100.00
45541;BME280;31265;49.680;8.608;2023-07-31T04:38:19;100322.53;;;16.86;100.00
45541;BME280;31265;49.680;8.608;2023-07-31T04:40:47;100314.28;;;16.88;100.00
45541;BME280;31265;49.680;8.608;2023-07-31T04:43:16;100323.53;;;16.91;100.00
45541;BME280;31265;49.680;8.608;2023-07-31T04:45:45;100315.88;;;17.03;100.00
45541;BME280;31265;49.680;8.608;2023-07-31T04:48:16;100323.66;;;16.93;100.00
45541;BME280;31265;49.680;8.608;2023-07-31T04:50:44;100318.91;;;16.95;100.00
45541;BME280;31265;49.680;8.608;2023-07-31T04:53:12;100312.72;;;16.97;100.00
45541;BME280;31265;49.680;8.608;2023-07-31T04:55:41;100316.00;;;17.05;100.00
45541;BME280;31265;49.680;8.608;2023-07-31T04:58:09;100314.03;;;17.08;100.00
45541;BME280;31265;49.680;8.608;2023-07-31T05:00:37;100313.78;;;17.15;100.00
45541;BME280;31265;49.680;8.608;2023-07-31T05:03:05;100314.53;;;17.16;100.00
45541;BME280;31265;49.680;8.608;2023-07-31T05:05:35;100312.59;;;17.18;100.00
45541;BME280;31265;49.680;8.608;2023-07-31T05:08:04;100313.31;;;17.19;100.00
45541;BME280;31265;49.680;8.608;2023-07-31T05:10:32;100312.34;;;17.26;100.00
45541;BME280;31265;49.680;8.608;2023-07-31T05:13:00;100315.88;;;17.27;100.00
45541;BME280;31265;49.680;8.608;2023-07-31T05:15:29;100313.91;;;17.29;100.00
45541;BME280;31265;49.680;8.608;2023-07-31T05:17:57;100313.78;;;17.39;100.00
45541;BME280;31265;49.680;8.608;2023-07-31T05:20:26;100307.19;;;17.46;100.00
45541;BME280;31265;49.680;8.608;2023-07-31T05:22:56;100309.03;;;17.41;100.00
45541;BME280;31265;49.680;8.608;2023-07-31T05:25:24;100314.00;;;17.43;100.00
45541;BME280;31265;49.680;8.608;2023-07-31T05:27:52;100312.19;;;17.48;100.00
45541;BME280;31265;49.680;8.608;2023-07-31T05:30:21;100307.19;;;17.46;100.00
45541;BME280;31265;49.680;8.608;2023-07-31T05:32:49;100309.88;;;17.44;100.00
45541;BME280;31265;49.680;8.608;2023-07-31T05:35:17;100314.84;;;17.57;100.00
45541;BME280;31265;49.680;8.608;2023-07-31T05:37:46;100312.13;;;17.71;100.00
45541;BME280;31265;49.680;8.608;2023-07-31T05:40:16;100313.84;;;17.76;100.00
45541;BME280;31265;49.680;8.608;2023-07-31T05:42:44;100301.53;;;17.81;100.00
45541;BME280;31265;49.680;8.608;2023-07-31T05:45:12;100306.09;;;18.00;100.00
45541;BME280;31265;49.680;8.608;2023-07-31T05:47:41;100307.16;;;18.07;100.00
45541;BME280;31265;49.680;8.608;2023-07-31T05:50:10;100309.00;;;18.02;100.00
45541;BME280;31265;49.680;8.608;2023-07-31T05:52:38;100301.41;;;18.05;100.00
45541;BME280;31265;49.680;8.608;2023-07-31T05:55:08;100300.94;;;18.09;100.00
45541;BME280;31265;49.680;8.608;2023-07-31T05:57:38;100299.69;;;18.12;100.00
45541;BME280;31265;49.680;8.608;2023-07-31T06:00:08;100295.41;;;18.36;100.00
45541;BME280;31265;49.680;8.608;2023-07-31T06:02:39;100286.75;;;18.32;100.00
45541;BME280;31265;49.680;8.608;2023-07-31T06:05:09;100292.66;;;18.50;100.00
45541;BME280;31265;49.680;8.608;2023-07-31T06:07:37;100283.94;;;18.58;100.00
45541;BME280;31265;49.680;8.608;2023-07-31T06:10:07;100293.59;;;18.80;100.00
45541;BME280;31265;49.680;8.608;2023-07-31T06:12:37;100293.03;;;18.70;100.00
45541;BME280;31265;49.680;8.608;2023-07-31T06:15:06;100283.09;;;18.95;100.00
45541;BME280;31265;49.680;8.608;2023-07-31T06:17:35;100289.34;;;18.93;100.00
45541;BME280;31265;49.680;8.608;2023-07-31T06:20:04;100293.16;;;18.86;100.00
45541;BME280;31265;49.680;8.608;2023-07-31T06:22:33;100291.72;;;18.99;100.00
45541;BME280;31265;49.680;8.608;2023-07-31T06:25:01;100293.16;;;18.86;100.00
45541;BME280;31265;49.680;8.608;2023-07-31T06:27:30;100295.69;;;19.07;100.00
45541;BME280;31265;49.680;8.608;2023-07-31T06:30:00;100292.25;;;19.37;100.00
45541;BME280;31265;49.680;8.608;2023-07-31T06:32:29;100286.72;;;19.52;100.00
45541;BME280;31265;49.680;8.608;2023-07-31T06:34:58;100291.06;;;19.55;100.00
45541;BME280;31265;49.680;8.608;2023-07-31T06:37:27;100284.09;;;19.70;100.00
45541;BME280;31265;49.680;8.608;2023-07-31T06:39:55;100292.13;;;19.48;100.00
45541;BME280;31265;49.680;8.608;2023-07-31T06:42:23;100284.13;;;19.43;100.00
45541;BME280;31265;49.680;8.608;2023-07-31T06:44:52;100294.78;;;19.17;100.00
45541;BME280;31265;49.680;8.608;2023-07-31T06:47:22;100288.50;;;18.90;100.00
45541;BME280;31265;49.680;8.608;2023-07-31T06:50:00;100295.38;;;18.87;100.00
45541;BME280;31265;49.680;8.608;2023-07-31T06:52:28;100289.34;;;18.79;100.00
45541;BME280;31265;49.680;8.608;2023-07-31T06:55:01;100293.81;;;18.98;100.00
45541;BME280;31265;49.680;8.608;2023-07-31T06:57:30;100289.25;;;19.05;100.00
45541;BME280;31265;49.680;8.608;2023-07-31T06:59:59;100286.63;;;19.37;100.00
45541;BME280;31265;49.680;8.608;2023-07-31T07:02:28;100291.63;;;19.24;100.00
45541;BME280;31265;49.680;8.608;2023-07-31T07:04:57;100291.75;;;19.12;100.00
45541;BME280;31265;49.680;8.608;2023-07-31T07:07:26;100290.69;;;19.20;100.00
45541;BME280;31265;49.680;8.608;2023-07-31T07:09:54;100294.25;;;19.34;100.00
45541;BME280;31265;49.680;8.608;2023-07-31T07:12:23;100289.09;;;19.72;100.00
45541;BME280;31265;49.680;8.608;2023-07-31T07:14:51;100289.84;;;19.59;100.00
45541;BME280;31265;49.680;8.608;2023-07-31T07:17:20;100288.16;;;19.81;100.00
45541;BME280;31265;49.680;8.608;2023-07-31T07:19:50;100292.94;;;19.65;100.00
45541;BME280;31265;49.680;8.608;2023-07-31T07:22:18;100286.28;;;19.58;100.00
45541;BME280;31265;49.680;8.608;2023-07-31T07:24:46;100276.25;;;20.12;100.00
45541;BME280;31265;49.680;8.608;2023-07-31T07:27:15;100280.34;;;20.55;100.00
45541;BME280;31265;49.680;8.608;2023-07-31T07:29:45;100278.63;;;20.64;100.00
45541;BME280;31265;49.680;8.608;2023-07-31T07:32:14;100265.13;;;20.94;100.00
45541;BME280;31265;49.680;8.608;2023-07-31T07:34:42;100275.03;;;21.11;100.00
45541;BME280;31265;49.680;8.608;2023-07-31T07:37:12;100278.88;;;21.51;100.00
45541;BME280;31265;49.680;8.608;2023-07-31T07:39:41;100276.38;;;21.25;100.00
45541;BME280;31265;49.680;8.608;2023-07-31T07:42:09;100276.38;;;21.41;100.00
45541;BME280;31265;49.680;8.608;2023-07-31T07:44:38;100274.72;;;21.88;100.00
45541;BME280;31265;49.680;8.608;2023-07-31T07:47:06;100273.22;;;21.51;100.00
45541;BME280;31265;49.680;8.608;2023-07-31T07:49:35;100266.50;;;21.76;100.00
45541;BME280;31265;49.680;8.608;2023-07-31T07:52:04;100268.03;;;21.97;100.00
45541;BME280;31265;49.680;8.608;2023-07-31T07:54:34;100260.81;;;22.48;100.00
45541;BME280;31265;49.680;8.608;2023-07-31T07:57:04;100260.19;;;22.31;100.00
45541;BME280;31265;49.680;8.608;2023-07-31T07:59:32;100264.56;;;21.99;100.00
45541;BME280;31265;49.680;8.608;2023-07-31T08:02:01;100261.66;;;21.97;100.00
45541;BME280;31265;49.680;8.608;2023-07-31T08:04:30;100247.28;;;22.08;100.00
45541;BME280;31265;49.680;8.608;2023-07-31T08:06:58;100249.28;;;22.62;100.00
45541;BME280;31265;49.680;8.608;2023-07-31T08:09:26;100246.56;;;23.46;100.00
45541;BME280;31265;49.680;8.608;2023-07-31T08:11:56;100247.00;;;23.80;100.00
45541;BME280;31265;49.680;8.608;2023-07-31T08:14:29;100251.44;;;24.09;100.00
45541;BME280;31265;49.680;8.608;2023-07-31T08:17:00;100243.97;;;24.44;100.00
45541;BME280;31265;49.680;8.608;2023-07-31T08:19:28;100253.19;;;24.68;100.00
45541;BME280;31265;49.680;8.608;2023-07-31T08:21:57;100245.19;;;24.61;100.00
45541;BME280;31265;49.680;8.608;2023-07-31T08:24:25;100234.59;;;24.39;100.00
45541;BME280;31265;49.680;8.608;2023-07-31T08:26:56;100242.22;;;24.57;100.00
45541;BME280;31265;49.680;8.608;2023-07-31T08:29:24;100229.50;;;25.12;100.00
45541;BME280;31265;49.680;8.608;2023-07-31T08:31:53;100230.84;;;25.35;97.66
45541;BME280;31265;49.680;8.608;2023-07-31T08:34:21;100231.38;;;24.75;100.00
45541;BME280;31265;49.680;8.608;2023-07-31T08:36:50;100222.50;;;25.15;100.00
45541;BME280;31265;49.680;8.608;2023-07-31T08:39:19;100215.34;;;25.40;100.00
45541;BME280;31265;49.680;8.608;2023-07-31T08:41:47;100212.53;;;24.60;100.00
45541;BME280;31265;49.680;8.608;2023-07-31T08:44:17;100204.44;;;25.02;100.00
45541;BME280;31265;49.680;8.608;2023-07-31T08:46:48;100202.41;;;25.33;100.00
45541;BME280;31265;49.680;8.608;2023-07-31T08:49:18;100209.81;;;24.64;100.00
45541;BME280;31265;49.680;8.608;2023-07-31T08:51:50;100209.28;;;24.21;100.00
45541;BME280;31265;49.680;8.608;2023-07-31T08:54:18;100215.13;;;24.52;100.00
45541;BME280;31265;49.680;8.608;2023-07-31T08:56:48;100207.78;;;25.21;99.48
45541;BME280;31265;49.680;8.608;2023-07-31T08:59:22;100196.81;;;25.67;100.00
45541;BME280;31265;49.680;8.608;2023-07-31T09:01:53;100197.38;;;25.60;99.13
45541;BME280;31265;49.680;8.608;2023-07-31T09:04:23;100194.28;;;25.21;100.00
45541;BME280;31265;49.680;8.608;2023-07-31T09:06:57;100192.41;;;25.60;100.00
45541;BME280;31265;49.680;8.608;2023-07-31T09:09:28;100190.47;;;25.39;100.00
45541;BME280;31265;49.680;8.608;2023-07-31T09:11:57;100204.34;;;24.72;100.00
45541;BME280;31265;49.680;8.608;2023-07-31T09:14:27;100200.97;;;24.03;100.00
45541;BME280;31265;49.680;8.608;2023-07-31T09:16:57;100190.94;;;23.32;100.00
45541;BME280;31265;49.680;8.608;2023-07-31T09:19:28;100191.44;;;23.27;100.00
45541;BME280;31265;49.680;8.608;2023-07-31T09:21:58;100184.13;;;22.98;100.00
45541;BME280;31265;49.680;8.608;2023-07-31T09:24:27;100181.91;;;22.96;100.00
45541;BME280;31265;49.680;8.608;2023-07-31T09:26:58;100177.63;;;23.15;100.00
45541;BME280;31265;49.680;8.608;2023-07-31T09:29:29;100182.44;;;23.32;100.00
45541;BME280;31265;49.680;8.608;2023-07-31T09:31:58;100178.31;;;24.03;100.00
45541;BME280;31265;49.680;8.608;2023-07-31T09:34:30;100181.47;;;24.40;100.00
45541;BME280;31265;49.680;8.608;2023-07-31T09:37:05;100185.81;;;23.95;100.00
45541;BME280;31265;49.680;8.608;2023-07-31T09:39:45;100175.34;;;23.99;100.00
45541;BME280;31265;49.680;8.608;2023-07-31T09:42:24;100169.19;;;24.07;100.00
45541;BME280;31265;49.680;8.608;2023-07-31T09:45:06;100169.38;;;23.89;100.00
45541;BME280;31265;49.680;8.608;2023-07-31T09:47:35;100170.56;;;23.82;100.00
45541;BME280;31265;49.680;8.608;2023-07-31T09:50:07;100165.84;;;23.23;100.00
45541;BME280;31265;49.680;8.608;2023-07-31T09:52:38;100151.88;;;23.07;100.00
45541;BME280;31265;49.680;8.608;2023-07-31T09:55:07;100155.50;;;23.09;100.00
45541;BME280;31265;49.680;8.608;2023-07-31T09:57:38;100159.72;;;23.08;100.00
45541;BME280;31265;49.680;8.608;2023-07-31T10:00:09;100153.28;;;23.06;100.00
45541;BME280;31265;49.680;8.608;2023-07-31T10:02:40;100152.13;;;22.93;100.00
45541;BME280;31265;49.680;8.608;2023-07-31T10:05:12;100158.56;;;22.95;100.00
45541;BME280;31265;49.680;8.608;2023-07-31T10:07:42;100151.69;;;23.01;100.00
45541;BME280;31265;49.680;8.608;2023-07-31T10:10:11;100150.69;;;23.14;100.00
45541;BME280;31265;49.680;8.608;2023-07-31T10:12:42;100139.72;;;23.24;100.00
45541;BME280;31265;49.680;8.608;2023-07-31T10:15:14;100139.06;;;23.26;100.00
45541;BME280;31265;49.680;8.608;2023-07-31T10:17:43;100136.25;;;24.20;100.00
45541;BME280;31265;49.680;8.608;2023-07-31T10:20:12;100130.81;;;24.28;100.00
45541;BME280;31265;49.680;8.608;2023-07-31T10:22:41;100125.13;;;24.28;100.00
45541;BME280;31265;49.680;8.608;2023-07-31T10:25:09;100118.22;;;24.33;100.00
45541;BME280;31265;49.680;8.608;2023-07-31T10:27:38;100108.50;;;24.97;100.00
45541;BME280;31265;49.680;8.608;2023-07-31T10:30:14;100112.59;;;25.48;98.38
45541;BME280;31265;49.680;8.608;2023-07-31T10:32:47;100109.00;;;25.45;100.00
45541;BME280;31265;49.680;8.608;2023-07-31T10:35:18;100115.88;;;24.78;99.23
45541;BME280;31265;49.680;8.608;2023-07-31T10:37:46;100124.31;;;24.23;100.00
45541;BME280;31265;49.680;8.608;2023-07-31T10:40:17;100114.69;;;24.35;100.00
45541;BME280;31265;49.680;8.608;2023-07-31T10:42:48;100115.84;;;23.75;100.00
45541;BME280;31265;49.680;8.608;2023-07-31T10:45:31;100112.56;;;24.09;100.00
45541;BME280;31265;49.680;8.608;2023-07-31T10:48:00;100114.63;;;24.07;100.00
45541;BME280;31265;49.680;8.608;2023-07-31T10:50:30;100121.19;;;24.13;100.00
45541;BME280;31265;49.680;8.608;2023-07-31T10:53:00;100121.41;;;25.30;100.00
45541;BME280;31265;49.680;8.608;2023-07-31T10:55:31;100124.72;;;24.92;100.00
45541;BME280;31265;49.680;8.608;2023-07-31T10:58:07;100120.72;;;24.47;100.00
45541;BME280;31265;49.680;8.608;2023-07-31T11:00:38;100117.03;;;24.42;100.00
45541;BME280;31265;49.680;8.608;2023-07-31T11:03:09;100119.03;;;24.64;100.00
45541;BME280;31265;49.680;8.608;2023-07-31T11:05:45;100104.59;;;25.10;99.66
45541;BME280;31265;49.680;8.608;2023-07-31T11:08:21;100105.72;;;25.59;96.28
45541;BME280;31265;49.680;8.608;2023-07-31T11:10:51;100100.56;;;25.84;93.97
45541;BME280;31265;49.680;8.608;2023-07-31T11:13:34;100104.16;;;24.63;98.23
45541;BME280;31265;49.680;8.608;2023-07-31T11:16:09;100101.59;;;24.48;100.00
45541;BME280;31265;49.680;8.608;2023-07-31T11:18:39;100100.69;;;24.67;100.00
45541;BME280;31265;49.680;8.608;2023-07-31T11:21:08;100098.13;;;23.99;100.00
45541;BME280;31265;49.680;8.608;2023-07-31T11:23:38;100103.56;;;23.69;100.00
45541;BME280;31265;49.680;8.608;2023-07-31T11:26:07;100098.50;;;23.87;100.00
45541;BME280;31265;49.680;8.608;2023-07-31T11:28:35;100091.94;;;23.34;100.00
45541;BME280;31265;49.680;8.608;2023-07-31T11:31:10;100105.06;;;23.48;100.00
45541;BME280;31265;49.680;8.608;2023-07-31T11:33:39;100111.81;;;23.14;100.00
45541;BME280;31265;49.680;8.608;2023-07-31T11:36:14;100101.06;;;22.47;100.00
45541;BME280;31265;49.680;8.608;2023-07-31T11:38:43;100098.22;;;22.47;100.00
45541;BME280;31265;49.680;8.608;2023-07-31T11:41:15;100095.84;;;22.39;100.00
45541;BME280;31265;49.680;8.608;2023-07-31T11:43:45;100096.25;;;22.71;100.00
45541;BME280;31265;49.680;8.608;2023-07-31T11:46:15;100090.88;;;22.60;100.00
45541;BME280;31265;49.680;8.608;2023-07-31T11:48:45;100074.16;;;22.88;100.00
45541;BME280;31265;49.680;8.608;2023-07-31T11:51:14;100068.81;;;22.76;100.00
45541;BME280;31265;49.680;8.608;2023-07-31T11:53:44;100062.00;;;22.83;100.00
45541;BME280;31265;49.680;8.608;2023-07-31T11:56:15;100072.81;;;22.69;100.00
45541;BME280;31265;49.680;8.608;2023-07-31T11:58:49;100060.66;;;22.86;100.00
45541;BME280;31265;49.680;8.608;2023-07-31T12:01:21;100061.81;;;22.99;100.00
45541;BME280;31265;49.680;8.608;2023-07-31T12:03:56;100056.53;;;23.11;100.00
45541;BME280;31265;49.680;8.608;2023-07-31T12:06:32;100051.50;;;23.08;100.00
45541;BME280;31265;49.680;8.608;2023-07-31T12:09:02;100053.09;;;23.37;100.00
45541;BME280;31265;49.680;8.608;2023-07-31T12:11:31;100060.56;;;23.50;100.00
45541;BME280;31265;49.680;8.608;2023-07-31T12:14:19;100057.13;;;23.30;100.00
45541;BME280;31265;49.680;8.608;2023-07-31T12:16:53;100049.41;;;23.56;100.00
45541;BME280;31265;49.680;8.608;2023-07-31T12:19:24;100046.63;;;23.58;100.00
45541;BME280;31265;49.680;8.608;2023-07-31T12:21:55;100051.38;;;23.74;100.00
45541;BME280;31265;49.680;8.608;2023-07-31T12:24:26;100040.97;;;23.58;100.00
45541;BME280;31265;49.680;8.608;2023-07-31T12:26:57;100040.22;;;23.32;100.00
45541;BME280;31265;49.680;8.608;2023-07-31T12:29:35;100026.50;;;23.24;100.00
45541;BME280;31265;49.680;8.608;2023-07-31T12:32:22;100026.81;;;23.10;100.00
45541;BME280;31265;49.680;8.608;2023-07-31T12:34:51;100033.25;;;23.13;100.00
45541;BME280;31265;49.680;8.608;2023-07-31T12:37:22;100031.34;;;22.75;100.00
45541;BME280;31265;49.680;8.608;2023-07-31T12:39:50;100024.81;;;22.49;100.00
45541;BME280;31265;49.680;8.608;2023-07-31T12:42:18;100018.56;;;22.52;100.00
45541;BME280;31265;49.680;8.608;2023-07-31T12:44:48;100010.03;;;22.72;100.00
45541;BME280;31265;49.680;8.608;2023-07-31T12:47:16;100020.22;;;22.82;100.00
45541;BME280;31265;49.680;8.608;2023-07-31T12:49:49;100018.63;;;22.76;100.00
45541;BME280;31265;49.680;8.608;2023-07-31T12:52:18;100018.38;;;22.68;100.00
45541;BME280;31265;49.680;8.608;2023-07-31T12:54:46;100016.97;;;22.47;100.00